sensor_id;sensor_type;location;lat;lon;timestamp;P1;durP1;ratioP1;P2;durP2;ratioP2
16979;SDS011;42288;52.182;21.156;2022-10-16T00:01:03;25.43;;;15.60;;
16979;SDS011;42288;52.182;21.156;2022-10-16T00:03:39;24.07;;;14.53;;
16979;SDS011;42288;52.182;21.156;2022-10-16T00:06:05;24.70;;;15.13;;
16979;SDS011;42288;52.182;21.156;2022-10-16T00:08:32;27.50;;;17.27;;
16979;SDS011;42288;52.182;21.156;2022-10-16T00:11:06;31.50;;;16.50;;
16979;SDS011;42288;52.182;21.156;2022-10-16T00:13:34;27.70;;;17.23;;
16979;SDS011;42288;52.182;21.156;2022-10-16T00:16:02;31.33;;;16.83;;
16979;SDS011;42288;52.182;21.156;2022-10-16T00:18:28;26.03;;;17.03;;
16979;SDS011;42288;52.182;21.156;2022-10-16T00:20:55;28.47;;;17.73;;
16979;SDS011;42288;52.182;21.156;2022-10-16T00:23:25;29.30;;;18.43;;
16979;SDS011;42288;52.182;21.156;2022-10-16T00:25:55;30.90;;;18.50;;
16979;SDS011;42288;52.182;21.156;2022-10-16T00:28:21;30.43;;;19.20;;
16979;SDS011;42288;52.182;21.156;2022-10-16T00:30:47;28.87;;;18.63;;
16979;SDS011;42288;52.182;21.156;2022-10-16T00:33:12;32.93;;;17.90;;
16979;SDS011;42288;52.182;21.156;2022-10-16T00:35:38;30.80;;;19.13;;
16979;SDS011;42288;52.182;21.156;2022-10-16T00:38:03;39.10;;;20.03;;
16979;SDS011;42288;52.182;21.156;2022-10-16T00:40:29;31.47;;;19.07;;
16979;SDS011;42288;52.182;21.156;2022-10-16T00:42:54;30.17;;;18.93;;
16979;SDS011;42288;52.182;21.156;2022-10-16T00:45:20;29.37;;;17.63;;
16979;SDS011;42288;52.182;21.156;2022-10-16T00:47:46;28.67;;;18.00;;
16979;SDS011;42288;52.182;21.156;2022-10-16T00:50:47;28.87;;;17.00;;
16979;SDS011;42288;52.182;21.156;2022-10-16T00:53:08;30.77;;;19.23;;
16979;SDS011;42288;52.182;21.156;2022-10-16T00:55:35;31.97;;;18.50;;
16979;SDS011;42288;52.182;21.156;2022-10-16T00:58:01;30.23;;;18.53;;
16979;SDS011;42288;52.182;21.156;2022-10-16T01:00:26;32.07;;;18.03;;
16979;SDS011;42288;52.182;21.156;2022-10-16T01:02:57;29.80;;;18.17;;
16979;SDS011;42288;52.182;21.156;2022-10-16T01:05:26;30.03;;;18.50;;
16979;SDS011;42288;52.182;21.156;2022-10-16T01:08:18;35.03;;;17.47;;
16979;SDS011;42288;52.182;21.156;2022-10-16T01:11:29;33.57;;;17.97;;
16979;SDS011;42288;52.182;21.156;2022-10-16T01:14:09;33.00;;;19.13;;
16979;SDS011;42288;52.182;21.156;2022-10-16T01:16:44;31.03;;;17.13;;
16979;SDS011;42288;52.182;21.156;2022-10-16T01:19:26;33.33;;;17.67;;
16979;SDS011;42288;52.182;21.156;2022-10-16T01:22:05;32.40;;;18.97;;
16979;SDS011;42288;52.182;21.156;2022-10-16T01:24:39;31.93;;;18.90;;
16979;SDS011;42288;52.182;21.156;2022-10-16T01:27:15;28.40;;;18.10;;
16979;SDS011;42288;52.182;21.156;2022-10-16T01:29:54;32.13;;;19.37;;
16979;SDS011;42288;52.182;21.156;2022-10-16T01:35:38;28.50;;;17.97;;
16979;SDS011;42288;52.182;21.156;2022-10-16T01:38:12;34.20;;;20.20;;
16979;SDS011;42288;52.182;21.156;2022-10-16T01:40:46;28.67;;;17.37;;
16979;SDS011;42288;52.182;21.156;2022-10-16T01:43:17;26.90;;;17.13;;
16979;SDS011;42288;52.182;21.156;2022-10-16T01:45:49;30.33;;;18.03;;
16979;SDS011;42288;52.182;21.156;2022-10-16T01:48:17;31.83;;;19.30;;
16979;SDS011;42288;52.182;21.156;2022-10-16T01:50:44;35.70;;;19.80;;
16979;SDS011;42288;52.182;21.156;2022-10-16T01:53:18;34.43;;;19.37;;
16979;SDS011;42288;52.182;21.156;2022-10-16T01:55:46;37.37;;;21.33;;
16979;SDS011;42288;52.182;21.156;2022-10-16T01:58:13;33.43;;;19.77;;
16979;SDS011;42288;52.182;21.156;2022-10-16T02:00:40;37.70;;;21.40;;
16979;SDS011;42288;52.182;21.156;2022-10-16T02:03:09;37.07;;;21.50;;
16979;SDS011;42288;52.182;21.156;2022-10-16T02:05:56;36.17;;;20.23;;
16979;SDS011;42288;52.182;21.156;2022-10-16T02:08:23;34.27;;;19.40;;
16979;SDS011;42288;52.182;21.156;2022-10-16T02:10:51;33.27;;;19.20;;
16979;SDS011;42288;52.182;21.156;2022-10-16T02:13:18;31.57;;;20.10;;
16979;SDS011;42288;52.182;21.156;2022-10-16T02:15:56;37.90;;;21.83;;
16979;SDS011;42288;52.182;21.156;2022-10-16T02:18:22;32.57;;;19.97;;
16979;SDS011;42288;52.182;21.156;2022-10-16T02:20:55;31.97;;;18.53;;
16979;SDS011;42288;52.182;21.156;2022-10-16T02:23:37;33.60;;;22.10;;
16979;SDS011;42288;52.182;21.156;2022-10-16T02:26:11;34.87;;;22.20;;
16979;SDS011;42288;52.182;21.156;2022-10-16T02:28:42;36.97;;;21.90;;
16979;SDS011;42288;52.182;21.156;2022-10-16T02:31:14;39.27;;;21.93;;
16979;SDS011;42288;52.182;21.156;2022-10-16T02:33:44;32.57;;;19.70;;
16979;SDS011;42288;52.182;21.156;2022-10-16T02:36:11;32.13;;;18.90;;
16979;SDS011;42288;52.182;21.156;2022-10-16T02:38:37;36.47;;;19.97;;
16979;SDS011;42288;52.182;21.156;2022-10-16T02:41:04;34.17;;;20.03;;
16979;SDS011;42288;52.182;21.156;2022-10-16T02:43:30;34.53;;;20.57;;
16979;SDS011;42288;52.182;21.156;2022-10-16T02:45:56;31.03;;;19.83;;
16979;SDS011;42288;52.182;21.156;2022-10-16T02:48:21;35.43;;;20.33;;
16979;SDS011;42288;52.182;21.156;2022-10-16T02:50:47;36.40;;;20.10;;
16979;SDS011;42288;52.182;21.156;2022-10-16T02:53:12;33.73;;;18.47;;
16979;SDS011;42288;52.182;21.156;2022-10-16T02:55:38;31.80;;;20.10;;
16979;SDS011;42288;52.182;21.156;2022-10-16T02:58:03;36.80;;;18.40;;
16979;SDS011;42288;52.182;21.156;2022-10-16T03:00:29;30.77;;;17.50;;
16979;SDS011;42288;52.182;21.156;2022-10-16T03:02:54;32.47;;;19.60;;
16979;SDS011;42288;52.182;21.156;2022-10-16T03:05:20;28.57;;;18.37;;
16979;SDS011;42288;52.182;21.156;2022-10-16T03:07:45;34.27;;;19.20;;
16979;SDS011;42288;52.182;21.156;2022-10-16T03:10:11;26.47;;;16.33;;
16979;SDS011;42288;52.182;21.156;2022-10-16T03:12:37;29.30;;;17.80;;
16979;SDS011;42288;52.182;21.156;2022-10-16T03:15:02;32.33;;;18.50;;
16979;SDS011;42288;52.182;21.156;2022-10-16T03:17:28;32.20;;;18.23;;
16979;SDS011;42288;52.182;21.156;2022-10-16T03:19:53;30.63;;;18.20;;
16979;SDS011;42288;52.182;21.156;2022-10-16T03:22:19;32.20;;;17.77;;
16979;SDS011;42288;52.182;21.156;2022-10-16T03:24:44;30.27;;;18.93;;
16979;SDS011;42288;52.182;21.156;2022-10-16T03:27:10;31.83;;;17.13;;
16979;SDS011;42288;52.182;21.156;2022-10-16T03:29:35;33.63;;;18.93;;
16979;SDS011;42288;52.182;21.156;2022-10-16T03:32:01;29.97;;;18.17;;
16979;SDS011;42288;52.182;21.156;2022-10-16T03:34:26;28.33;;;17.23;;
16979;SDS011;42288;52.182;21.156;2022-10-16T03:36:52;26.07;;;17.13;;
16979;SDS011;42288;52.182;21.156;2022-10-16T03:39:18;33.53;;;18.37;;
16979;SDS011;42288;52.182;21.156;2022-10-16T03:41:44;29.63;;;17.70;;
16979;SDS011;42288;52.182;21.156;2022-10-16T03:44:11;31.50;;;18.57;;
16979;SDS011;42288;52.182;21.156;2022-10-16T03:46:37;27.37;;;17.57;;
16979;SDS011;42288;52.182;21.156;2022-10-16T03:49:02;31.30;;;18.43;;
16979;SDS011;42288;52.182;21.156;2022-10-16T03:51:28;30.00;;;18.23;;
16979;SDS011;42288;52.182;21.156;2022-10-16T03:53:54;29.93;;;17.03;;
16979;SDS011;42288;52.182;21.156;2022-10-16T03:56:19;30.07;;;17.23;;
16979;SDS011;42288;52.182;21.156;2022-10-16T03:58:45;36.57;;;19.00;;
16979;SDS011;42288;52.182;21.156;2022-10-16T04:01:10;30.73;;;18.43;;
16979;SDS011;42288;52.182;21.156;2022-10-16T04:03:36;28.90;;;17.53;;
16979;SDS011;42288;52.182;21.156;2022-10-16T04:06:01;30.00;;;18.07;;
16979;SDS011;42288;52.182;21.156;2022-10-16T04:08:27;28.47;;;17.57;;
16979;SDS011;42288;52.182;21.156;2022-10-16T04:10:52;29.57;;;17.57;;
16979;SDS011;42288;52.182;21.156;2022-10-16T04:13:18;30.70;;;17.63;;
16979;SDS011;42288;52.182;21.156;2022-10-16T04:15:44;27.00;;;17.17;;
16979;SDS011;42288;52.182;21.156;2022-10-16T04:18:10;29.37;;;17.23;;
16979;SDS011;42288;52.182;21.156;2022-10-16T04:20:35;32.20;;;16.57;;
16979;SDS011;42288;52.182;21.156;2022-10-16T04:23:01;24.93;;;17.03;;
16979;SDS011;42288;52.182;21.156;2022-10-16T04:25:26;32.80;;;17.10;;
16979;SDS011;42288;52.182;21.156;2022-10-16T04:27:52;30.73;;;17.33;;
16979;SDS011;42288;52.182;21.156;2022-10-16T04:30:19;29.20;;;16.33;;
16979;SDS011;42288;52.182;21.156;2022-10-16T04:32:48;28.60;;;16.73;;
16979;SDS011;42288;52.182;21.156;2022-10-16T04:35:18;30.83;;;17.43;;
16979;SDS011;42288;52.182;21.156;2022-10-16T04:37:44;28.67;;;16.70;;
16979;SDS011;42288;52.182;21.156;2022-10-16T04:40:09;30.63;;;17.77;;
16979;SDS011;42288;52.182;21.156;2022-10-16T04:42:35;27.33;;;16.50;;
16979;SDS011;42288;52.182;21.156;2022-10-16T04:45:00;27.47;;;16.40;;
16979;SDS011;42288;52.182;21.156;2022-10-16T04:47:26;25.60;;;15.67;;
16979;SDS011;42288;52.182;21.156;2022-10-16T04:49:51;29.03;;;17.93;;
16979;SDS011;42288;52.182;21.156;2022-10-16T04:52:17;26.07;;;15.90;;
16979;SDS011;42288;52.182;21.156;2022-10-16T04:54:43;29.33;;;16.17;;
16979;SDS011;42288;52.182;21.156;2022-10-16T04:57:10;30.97;;;16.63;;
16979;SDS011;42288;52.182;21.156;2022-10-16T04:59:35;23.13;;;14.73;;
16979;SDS011;42288;52.182;21.156;2022-10-16T05:02:01;25.50;;;15.43;;
16979;SDS011;42288;52.182;21.156;2022-10-16T05:04:27;22.30;;;14.73;;
16979;SDS011;42288;52.182;21.156;2022-10-16T05:06:52;25.13;;;15.50;;
16979;SDS011;42288;52.182;21.156;2022-10-16T05:09:17;27.17;;;16.53;;
16979;SDS011;42288;52.182;21.156;2022-10-16T05:11:43;30.37;;;17.93;;
16979;SDS011;42288;52.182;21.156;2022-10-16T05:14:08;26.97;;;16.73;;
16979;SDS011;42288;52.182;21.156;2022-10-16T05:16:34;22.77;;;15.33;;
16979;SDS011;42288;52.182;21.156;2022-10-16T05:18:59;26.97;;;16.27;;
16979;SDS011;42288;52.182;21.156;2022-10-16T05:21:25;27.67;;;16.83;;
16979;SDS011;42288;52.182;21.156;2022-10-16T05:23:50;27.00;;;16.03;;
16979;SDS011;42288;52.182;21.156;2022-10-16T05:26:18;25.37;;;15.10;;
16979;SDS011;42288;52.182;21.156;2022-10-16T05:28:43;29.10;;;14.37;;
16979;SDS011;42288;52.182;21.156;2022-10-16T05:31:09;25.43;;;14.87;;
16979;SDS011;42288;52.182;21.156;2022-10-16T05:33:35;26.73;;;15.33;;
16979;SDS011;42288;52.182;21.156;2022-10-16T05:36:07;24.03;;;16.07;;
16979;SDS011;42288;52.182;21.156;2022-10-16T05:38:34;26.43;;;15.67;;
16979;SDS011;42288;52.182;21.156;2022-10-16T05:41:00;26.80;;;15.10;;
16979;SDS011;42288;52.182;21.156;2022-10-16T05:43:27;25.97;;;17.20;;
16979;SDS011;42288;52.182;21.156;2022-10-16T05:45:54;26.03;;;15.60;;
16979;SDS011;42288;52.182;21.156;2022-10-16T05:48:21;27.27;;;17.10;;
16979;SDS011;42288;52.182;21.156;2022-10-16T05:50:47;28.60;;;17.07;;
16979;SDS011;42288;52.182;21.156;2022-10-16T05:53:12;26.67;;;16.77;;
16979;SDS011;42288;52.182;21.156;2022-10-16T05:55:38;26.87;;;16.03;;
16979;SDS011;42288;52.182;21.156;2022-10-16T05:58:03;27.10;;;15.57;;
16979;SDS011;42288;52.182;21.156;2022-10-16T06:00:29;27.10;;;16.63;;
16979;SDS011;42288;52.182;21.156;2022-10-16T06:02:54;27.87;;;15.37;;
16979;SDS011;42288;52.182;21.156;2022-10-16T06:05:19;31.67;;;16.67;;
16979;SDS011;42288;52.182;21.156;2022-10-16T06:07:45;30.97;;;14.80;;
16979;SDS011;42288;52.182;21.156;2022-10-16T06:10:10;23.20;;;14.50;;
16979;SDS011;42288;52.182;21.156;2022-10-16T06:12:36;23.73;;;14.20;;
16979;SDS011;42288;52.182;21.156;2022-10-16T06:15:01;26.90;;;15.00;;
16979;SDS011;42288;52.182;21.156;2022-10-16T06:17:27;25.63;;;14.83;;
16979;SDS011;42288;52.182;21.156;2022-10-16T06:19:52;24.37;;;14.97;;
16979;SDS011;42288;52.182;21.156;2022-10-16T06:22:18;24.57;;;14.30;;
16979;SDS011;42288;52.182;21.156;2022-10-16T06:24:43;21.70;;;14.87;;
16979;SDS011;42288;52.182;21.156;2022-10-16T06:27:09;24.70;;;15.20;;
16979;SDS011;42288;52.182;21.156;2022-10-16T06:29:34;28.13;;;16.33;;
16979;SDS011;42288;52.182;21.156;2022-10-16T06:32:00;30.13;;;16.40;;
16979;SDS011;42288;52.182;21.156;2022-10-16T06:34:25;23.70;;;15.50;;
16979;SDS011;42288;52.182;21.156;2022-10-16T06:36:51;26.97;;;13.97;;
16979;SDS011;42288;52.182;21.156;2022-10-16T06:39:16;22.17;;;14.53;;
16979;SDS011;42288;52.182;21.156;2022-10-16T06:41:42;24.77;;;13.93;;
16979;SDS011;42288;52.182;21.156;2022-10-16T06:44:07;25.63;;;14.23;;
16979;SDS011;42288;52.182;21.156;2022-10-16T06:46:33;21.43;;;13.87;;
16979;SDS011;42288;52.182;21.156;2022-10-16T06:48:59;23.37;;;14.13;;
16979;SDS011;42288;52.182;21.156;2022-10-16T06:51:25;24.50;;;13.90;;
16979;SDS011;42288;52.182;21.156;2022-10-16T06:53:51;25.53;;;14.57;;
16979;SDS011;42288;52.182;21.156;2022-10-16T06:56:23;25.30;;;14.50;;
16979;SDS011;42288;52.182;21.156;2022-10-16T06:58:49;25.27;;;15.17;;
16979;SDS011;42288;52.182;21.156;2022-10-16T07:01:16;23.13;;;13.60;;
16979;SDS011;42288;52.182;21.156;2022-10-16T07:03:43;20.57;;;13.40;;
16979;SDS011;42288;52.182;21.156;2022-10-16T07:06:10;25.00;;;13.53;;
16979;SDS011;42288;52.182;21.156;2022-10-16T07:08:38;23.83;;;14.53;;
16979;SDS011;42288;52.182;21.156;2022-10-16T07:11:05;20.17;;;13.40;;
16979;SDS011;42288;52.182;21.156;2022-10-16T07:13:33;21.60;;;13.40;;
16979;SDS011;42288;52.182;21.156;2022-10-16T07:16:04;23.50;;;14.60;;
16979;SDS011;42288;52.182;21.156;2022-10-16T07:18:33;19.33;;;13.67;;
16979;SDS011;42288;52.182;21.156;2022-10-16T07:21:03;21.77;;;13.43;;
16979;SDS011;42288;52.182;21.156;2022-10-16T07:23:33;25.60;;;14.47;;
16979;SDS011;42288;52.182;21.156;2022-10-16T07:25:59;21.90;;;12.77;;
16979;SDS011;42288;52.182;21.156;2022-10-16T07:28:25;21.57;;;13.27;;
16979;SDS011;42288;52.182;21.156;2022-10-16T07:30:51;24.17;;;13.23;;
16979;SDS011;42288;52.182;21.156;2022-10-16T07:33:16;25.00;;;14.50;;
16979;SDS011;42288;52.182;21.156;2022-10-16T07:35:52;23.30;;;14.57;;
16979;SDS011;42288;52.182;21.156;2022-10-16T07:38:19;20.50;;;13.23;;
16979;SDS011;42288;52.182;21.156;2022-10-16T07:40:45;23.93;;;14.17;;
16979;SDS011;42288;52.182;21.156;2022-10-16T07:43:11;25.13;;;14.07;;
16979;SDS011;42288;52.182;21.156;2022-10-16T07:45:37;22.47;;;14.23;;
16979;SDS011;42288;52.182;21.156;2022-10-16T07:48:03;21.37;;;14.03;;
16979;SDS011;42288;52.182;21.156;2022-10-16T07:50:29;18.17;;;12.23;;
16979;SDS011;42288;52.182;21.156;2022-10-16T07:52:54;20.47;;;12.33;;
16979;SDS011;42288;52.182;21.156;2022-10-16T07:55:19;20.73;;;12.77;;
16979;SDS011;42288;52.182;21.156;2022-10-16T07:57:45;19.87;;;12.20;;
16979;SDS011;42288;52.182;21.156;2022-10-16T08:00:11;20.87;;;12.83;;
16979;SDS011;42288;52.182;21.156;2022-10-16T08:02:39;18.77;;;11.53;;
16979;SDS011;42288;52.182;21.156;2022-10-16T08:05:05;20.73;;;13.13;;
16979;SDS011;42288;52.182;21.156;2022-10-16T08:07:31;22.97;;;12.47;;
16979;SDS011;42288;52.182;21.156;2022-10-16T08:09:56;23.53;;;12.27;;
16979;SDS011;42288;52.182;21.156;2022-10-16T08:12:23;16.57;;;11.40;;
16979;SDS011;42288;52.182;21.156;2022-10-16T08:14:49;20.63;;;11.33;;
16979;SDS011;42288;52.182;21.156;2022-10-16T08:17:15;18.93;;;11.63;;
16979;SDS011;42288;52.182;21.156;2022-10-16T08:19:43;18.63;;;11.17;;
16979;SDS011;42288;52.182;21.156;2022-10-16T08:22:13;21.73;;;11.20;;
16979;SDS011;42288;52.182;21.156;2022-10-16T08:24:39;20.37;;;12.00;;
16979;SDS011;42288;52.182;21.156;2022-10-16T08:27:05;17.20;;;11.20;;
16979;SDS011;42288;52.182;21.156;2022-10-16T08:29:31;20.43;;;12.20;;
16979;SDS011;42288;52.182;21.156;2022-10-16T08:31:57;21.20;;;11.40;;
16979;SDS011;42288;52.182;21.156;2022-10-16T08:34:22;17.27;;;11.17;;
16979;SDS011;42288;52.182;21.156;2022-10-16T08:36:48;19.17;;;10.57;;
16979;SDS011;42288;52.182;21.156;2022-10-16T08:39:13;16.70;;;10.93;;
16979;SDS011;42288;52.182;21.156;2022-10-16T08:42:01;16.13;;;10.90;;
16979;SDS011;42288;52.182;21.156;2022-10-16T08:44:54;15.83;;;10.27;;
16979;SDS011;42288;52.182;21.156;2022-10-16T08:47:53;16.27;;;11.07;;
16979;SDS011;42288;52.182;21.156;2022-10-16T08:50:30;16.50;;;10.87;;
16979;SDS011;42288;52.182;21.156;2022-10-16T08:52:58;14.30;;;10.13;;
16979;SDS011;42288;52.182;21.156;2022-10-16T08:55:31;15.53;;;10.00;;
16979;SDS011;42288;52.182;21.156;2022-10-16T08:58:09;17.93;;;9.47;;
16979;SDS011;42288;52.182;21.156;2022-10-16T09:00:47;17.23;;;10.73;;
16979;SDS011;42288;52.182;21.156;2022-10-16T09:06:10;16.23;;;10.57;;
16979;SDS011;42288;52.182;21.156;2022-10-16T09:09:38;16.50;;;10.77;;
16979;SDS011;42288;52.182;21.156;2022-10-16T09:20:32;18.27;;;10.70;;
16979;SDS011;42288;52.182;21.156;2022-10-16T09:23:13;16.83;;;10.13;;
16979;SDS011;42288;52.182;21.156;2022-10-16T09:25:42;16.57;;;10.23;;
16979;SDS011;42288;52.182;21.156;2022-10-16T09:28:09;15.40;;;10.40;;
16979;SDS011;42288;52.182;21.156;2022-10-16T09:30:35;14.27;;;10.20;;
16979;SDS011;42288;52.182;21.156;2022-10-16T09:33:02;16.17;;;9.70;;
16979;SDS011;42288;52.182;21.156;2022-10-16T09:35:36;17.37;;;9.93;;
16979;SDS011;42288;52.182;21.156;2022-10-16T09:38:04;16.07;;;10.50;;
16979;SDS011;42288;52.182;21.156;2022-10-16T09:40:33;16.40;;;9.40;;
16979;SDS011;42288;52.182;21.156;2022-10-16T09:43:22;16.03;;;10.00;;
16979;SDS011;42288;52.182;21.156;2022-10-16T09:46:05;15.00;;;9.87;;
16979;SDS011;42288;52.182;21.156;2022-10-16T09:48:37;13.97;;;9.63;;
16979;SDS011;42288;52.182;21.156;2022-10-16T09:51:16;15.83;;;10.37;;
16979;SDS011;42288;52.182;21.156;2022-10-16T09:56:37;14.07;;;9.67;;
16979;SDS011;42288;52.182;21.156;2022-10-16T09:59:13;15.80;;;9.57;;
16979;SDS011;42288;52.182;21.156;2022-10-16T10:01:41;15.67;;;9.53;;
16979;SDS011;42288;52.182;21.156;2022-10-16T10:04:12;16.10;;;9.87;;
16979;SDS011;42288;52.182;21.156;2022-10-16T10:09:20;19.10;;;10.10;;
16979;SDS011;42288;52.182;21.156;2022-10-16T10:14:22;18.73;;;10.20;;
16979;SDS011;42288;52.182;21.156;2022-10-16T10:25:12;16.23;;;9.67;;
16979;SDS011;42288;52.182;21.156;2022-10-16T10:30:35;13.27;;;9.30;;
16979;SDS011;42288;52.182;21.156;2022-10-16T10:33:31;14.07;;;9.13;;
16979;SDS011;42288;52.182;21.156;2022-10-16T10:47:36;12.93;;;9.13;;
16979;SDS011;42288;52.182;21.156;2022-10-16T10:50:26;13.43;;;9.10;;
16979;SDS011;42288;52.182;21.156;2022-10-16T11:01:07;13.17;;;8.93;;
16979;SDS011;42288;52.182;21.156;2022-10-16T11:07:05;12.77;;;8.13;;
16979;SDS011;42288;52.182;21.156;2022-10-16T11:09:36;12.53;;;8.07;;
16979;SDS011;42288;52.182;21.156;2022-10-16T11:12:09;11.00;;;7.80;;
16979;SDS011;42288;52.182;21.156;2022-10-16T11:14:43;10.73;;;8.20;;
16979;SDS011;42288;52.182;21.156;2022-10-16T11:22:44;13.97;;;8.37;;
16979;SDS011;42288;52.182;21.156;2022-10-16T11:30:40;16.50;;;7.80;;
16979;SDS011;42288;52.182;21.156;2022-10-16T11:41:11;12.30;;;8.50;;
16979;SDS011;42288;52.182;21.156;2022-10-16T11:46:28;12.03;;;8.00;;
16979;SDS011;42288;52.182;21.156;2022-10-16T11:49:15;10.63;;;8.00;;
16979;SDS011;42288;52.182;21.156;2022-10-16T11:51:48;10.13;;;7.90;;
16979;SDS011;42288;52.182;21.156;2022-10-16T11:54:26;12.17;;;8.10;;
16979;SDS011;42288;52.182;21.156;2022-10-16T11:57:08;12.03;;;8.30;;
16979;SDS011;42288;52.182;21.156;2022-10-16T11:59:52;11.73;;;7.33;;
16979;SDS011;42288;52.182;21.156;2022-10-16T12:02:35;10.00;;;7.13;;
16979;SDS011;42288;52.182;21.156;2022-10-16T12:05:06;11.70;;;7.60;;
16979;SDS011;42288;52.182;21.156;2022-10-16T12:07:48;12.30;;;8.03;;
16979;SDS011;42288;52.182;21.156;2022-10-16T12:10:26;12.43;;;7.90;;
16979;SDS011;42288;52.182;21.156;2022-10-16T12:12:54;11.83;;;8.00;;
16979;SDS011;42288;52.182;21.156;2022-10-16T12:15:22;13.43;;;8.50;;
16979;SDS011;42288;52.182;21.156;2022-10-16T12:17:57;14.90;;;8.60;;
16979;SDS011;42288;52.182;21.156;2022-10-16T12:20:26;12.27;;;8.10;;
16979;SDS011;42288;52.182;21.156;2022-10-16T12:25:30;11.90;;;8.20;;
16979;SDS011;42288;52.182;21.156;2022-10-16T12:30:37;11.40;;;7.53;;
16979;SDS011;42288;52.182;21.156;2022-10-16T12:33:04;13.83;;;8.30;;
16979;SDS011;42288;52.182;21.156;2022-10-16T12:35:43;11.57;;;7.27;;
16979;SDS011;42288;52.182;21.156;2022-10-16T12:38:15;11.70;;;8.13;;
16979;SDS011;42288;52.182;21.156;2022-10-16T12:46:00;9.00;;;6.70;;
16979;SDS011;42288;52.182;21.156;2022-10-16T12:48:28;12.67;;;6.23;;
16979;SDS011;42288;52.182;21.156;2022-10-16T12:50:55;13.60;;;6.80;;
16979;SDS011;42288;52.182;21.156;2022-10-16T12:53:22;14.97;;;7.00;;
16979;SDS011;42288;52.182;21.156;2022-10-16T12:55:56;11.83;;;7.03;;
16979;SDS011;42288;52.182;21.156;2022-10-16T12:58:51;13.03;;;7.93;;
16979;SDS011;42288;52.182;21.156;2022-10-16T13:03:59;10.70;;;7.70;;
16979;SDS011;42288;52.182;21.156;2022-10-16T13:09:18;12.83;;;8.00;;
16979;SDS011;42288;52.182;21.156;2022-10-16T13:15:01;10.73;;;7.87;;
16979;SDS011;42288;52.182;21.156;2022-10-16T13:17:34;13.03;;;8.03;;
16979;SDS011;42288;52.182;21.156;2022-10-16T13:20:29;11.23;;;7.37;;
16979;SDS011;42288;52.182;21.156;2022-10-16T13:23:02;13.63;;;7.60;;
16979;SDS011;42288;52.182;21.156;2022-10-16T13:28:40;12.73;;;7.27;;
16979;SDS011;42288;52.182;21.156;2022-10-16T13:31:05;10.53;;;7.40;;
16979;SDS011;42288;52.182;21.156;2022-10-16T13:33:43;12.53;;;7.00;;
16979;SDS011;42288;52.182;21.156;2022-10-16T13:36:19;13.53;;;7.43;;
16979;SDS011;42288;52.182;21.156;2022-10-16T13:38:46;12.00;;;7.53;;
16979;SDS011;42288;52.182;21.156;2022-10-16T13:41:16;11.60;;;7.33;;
16979;SDS011;42288;52.182;21.156;2022-10-16T13:43:43;12.37;;;7.40;;
16979;SDS011;42288;52.182;21.156;2022-10-16T13:46:18;12.90;;;8.00;;
16979;SDS011;42288;52.182;21.156;2022-10-16T13:48:55;13.27;;;7.53;;
16979;SDS011;42288;52.182;21.156;2022-10-16T13:51:25;13.53;;;7.30;;
16979;SDS011;42288;52.182;21.156;2022-10-16T13:53:51;10.67;;;7.67;;
16979;SDS011;42288;52.182;21.156;2022-10-16T13:56:20;11.13;;;7.50;;
16979;SDS011;42288;52.182;21.156;2022-10-16T13:58:57;13.70;;;7.97;;
16979;SDS011;42288;52.182;21.156;2022-10-16T14:01:31;11.70;;;7.80;;
16979;SDS011;42288;52.182;21.156;2022-10-16T14:04:05;10.83;;;7.80;;
16979;SDS011;42288;52.182;21.156;2022-10-16T14:06:33;11.33;;;8.03;;
16979;SDS011;42288;52.182;21.156;2022-10-16T14:09:03;10.10;;;7.20;;
16979;SDS011;42288;52.182;21.156;2022-10-16T14:11:31;12.27;;;7.30;;
16979;SDS011;42288;52.182;21.156;2022-10-16T14:13:58;11.50;;;7.37;;
16979;SDS011;42288;52.182;21.156;2022-10-16T14:16:25;10.27;;;7.77;;
16979;SDS011;42288;52.182;21.156;2022-10-16T14:21:27;11.83;;;8.17;;
16979;SDS011;42288;52.182;21.156;2022-10-16T14:23:53;13.70;;;8.10;;
16979;SDS011;42288;52.182;21.156;2022-10-16T14:26:20;12.43;;;7.27;;
16979;SDS011;42288;52.182;21.156;2022-10-16T14:29:02;11.10;;;7.60;;
16979;SDS011;42288;52.182;21.156;2022-10-16T14:31:35;11.90;;;8.20;;
16979;SDS011;42288;52.182;21.156;2022-10-16T14:34:02;12.60;;;7.53;;
16979;SDS011;42288;52.182;21.156;2022-10-16T14:36:29;14.00;;;8.53;;
16979;SDS011;42288;52.182;21.156;2022-10-16T14:39:05;13.50;;;8.17;;
16979;SDS011;42288;52.182;21.156;2022-10-16T14:41:44;16.43;;;8.17;;
16979;SDS011;42288;52.182;21.156;2022-10-16T14:44:11;14.43;;;7.97;;
16979;SDS011;42288;52.182;21.156;2022-10-16T14:46:38;10.20;;;7.40;;
16979;SDS011;42288;52.182;21.156;2022-10-16T14:51:34;14.33;;;7.73;;
16979;SDS011;42288;52.182;21.156;2022-10-16T14:54:00;15.20;;;7.93;;
16979;SDS011;42288;52.182;21.156;2022-10-16T14:56:34;12.20;;;7.77;;
16979;SDS011;42288;52.182;21.156;2022-10-16T14:59:07;11.30;;;7.63;;
16979;SDS011;42288;52.182;21.156;2022-10-16T15:01:39;13.90;;;8.40;;
16979;SDS011;42288;52.182;21.156;2022-10-16T15:04:04;12.87;;;8.57;;
16979;SDS011;42288;52.182;21.156;2022-10-16T15:06:32;13.03;;;8.23;;
16979;SDS011;42288;52.182;21.156;2022-10-16T15:08:57;14.13;;;9.00;;
16979;SDS011;42288;52.182;21.156;2022-10-16T15:11:23;11.40;;;8.20;;
16979;SDS011;42288;52.182;21.156;2022-10-16T15:13:48;11.87;;;8.63;;
16979;SDS011;42288;52.182;21.156;2022-10-16T15:16:15;12.83;;;7.57;;
16979;SDS011;42288;52.182;21.156;2022-10-16T15:18:41;14.20;;;10.20;;
16979;SDS011;42288;52.182;21.156;2022-10-16T15:21:07;13.53;;;7.83;;
16979;SDS011;42288;52.182;21.156;2022-10-16T15:23:33;37.30;;;22.43;;
16979;SDS011;42288;52.182;21.156;2022-10-16T15:25:58;14.80;;;9.13;;
16979;SDS011;42288;52.182;21.156;2022-10-16T15:28:24;17.33;;;10.07;;
16979;SDS011;42288;52.182;21.156;2022-10-16T15:30:51;13.90;;;9.43;;
16979;SDS011;42288;52.182;21.156;2022-10-16T15:33:19;14.83;;;10.47;;
16979;SDS011;42288;52.182;21.156;2022-10-16T15:35:49;18.47;;;9.37;;
16979;SDS011;42288;52.182;21.156;2022-10-16T15:38:16;14.77;;;8.87;;
16979;SDS011;42288;52.182;21.156;2022-10-16T15:40:43;15.73;;;9.27;;
16979;SDS011;42288;52.182;21.156;2022-10-16T15:43:09;15.10;;;9.30;;
16979;SDS011;42288;52.182;21.156;2022-10-16T15:45:35;12.30;;;8.70;;
16979;SDS011;42288;52.182;21.156;2022-10-16T15:48:00;13.77;;;9.20;;
16979;SDS011;42288;52.182;21.156;2022-10-16T15:50:26;14.73;;;8.43;;
16979;SDS011;42288;52.182;21.156;2022-10-16T15:52:52;12.07;;;8.70;;
16979;SDS011;42288;52.182;21.156;2022-10-16T15:55:17;12.73;;;8.90;;
16979;SDS011;42288;52.182;21.156;2022-10-16T15:57:43;13.50;;;9.10;;
16979;SDS011;42288;52.182;21.156;2022-10-16T16:00:11;17.83;;;10.53;;
16979;SDS011;42288;52.182;21.156;2022-10-16T16:02:39;15.00;;;9.77;;
16979;SDS011;42288;52.182;21.156;2022-10-16T16:05:06;12.40;;;8.57;;
16979;SDS011;42288;52.182;21.156;2022-10-16T16:07:33;13.70;;;9.10;;
16979;SDS011;42288;52.182;21.156;2022-10-16T16:09:59;12.73;;;9.53;;
16979;SDS011;42288;52.182;21.156;2022-10-16T16:12:25;13.07;;;9.37;;